Kokomo, IN (46902)

1:16 PM EST on February 14, 2016 (GMT -0500)
Ruhl Garden | | Change Station
CLOSE
Current Station
Personal Weather Station
Location: Kokomo, IN
Elevation: 830 ft
Nearby Weather Stations

Elev 830 ft 40.47 °N, 86.05 °W | Updated 113 days ago

Overcast
Overcast
19 °F
Feels Like 6 °F
N
14
Wind Variable Wind from ESE
Gusts 21 mph

Today
High -- | Low -- °F
--% Chance of Precip.
Yesterday
High -- | Low -- °F
Precip. -- in
Pressure 30.25 in
Visibility 10.0 miles
Clouds Overcast 7000 ft
Windchill 6 °F
Dew Point 11 °F
Humidity 72%
Rainfall in
Snow Depth Not available.
7:39 AM 6:18 PM
Waxing Crescent, 44% visible
METAR KOKK 141755Z AUTO 14013KT 10SM OVC070 M08/M14 A3025 RMK AO1 11080 21120 57034
Pressure 30.25 in
Visibility 10.0 miles
Clouds Overcast 7000 ft
Windchill 6 °F
Dew Point 11 °F
Humidity 72%
Rainfall in
Snow Depth Not available.
7:39 AM 6:18 PM
Waxing Crescent, 44% visible
METAR KOKK 141755Z AUTO 14013KT 10SM OVC070 M08/M14 A3025 RMK AO1 11080 21120 57034

10-Day Weather Forecast

Almanac

Astronomy

Feb. 14, 2016 Rise Set
Actual Time
Civil Twilight
Nautical Twilight
Astronomical Twilight
Moon
Length of Visible Light
Length of Day
Tomorrow will be .
, % of the Moon is Illuminated

Today's Extremes

State Highs State Lows

Community

WunderPhotos

Upload Photos

1,892,867 photos uploaded!

WunderBlog® & News

Nearby

Air Quality

  Air Quality AQ Index Pollutant
Not available.

Snow Depth

Station Depth Elevation

Earthquake Activity

City Distance Mag. Time & Date
Minimum magnitude displayed is 2.5.

Coastal Water Temperatures

Place Temperature

Stations

Nearby Weather Stations

Station Location Temp. Windchill Dew Point Humidity Wind Precip. Elev Updated Type
                   

Watches & Warnings

There are currently no watches in effect.